Main page
METAR-TAF:

METAR-TAF

Airports :

Cardiff, Wales

Cardiff Airport

latitude: 51-24N, longitude: 003-21W, elevation: 67 m

Current weather observation

The report was made 20 minutes ago, at 06:50 UTC
Wind 13 kt from the West/Northwest
Temperature 14°C
Humidity 88%
Pressure 1017 hPa
Visibility 10 km or more

METAR: EGFF 190650Z AUTO 30013KT 9999 FEW038/// SCT046/// //////CB 14/12 Q1017

Time: 08:10 (07:10 UTC)

Forecast

The report was made 2 hours and 14 minutes ago, at 04:56 UTC
Forecast valid from 19 at 06 UTC to 20 at 06 UTC
Wind 12 kt from the West/Northwest
Visibility 10 km or more
Scattered clouds at a height of 2500 ft
Probability 40% :
Temporary
from 19 at 06 UTC to 19 at 15 UTC
Visibility: 7000 m
rain showers
Temporary
from 19 at 08 UTC to 19 at 19 UTC
Wind 15 kt from the West with gusts up to 25 kt
Becoming
from 20 at 00 UTC to 20 at 03 UTC
Wind 6 kt from the Southwest

TAF: EGFF 190456Z 1906/2006 29012KT 9999 SCT025 PROB40 TEMPO 1906/1915 7000 SHRA TEMPO 1908/1919 27015G25KT BECMG 2000/2003 23006KT

Weather observations and forecasts of more than 4000 airports (METAR and TAF reports).

The available stations are represented by yellow and red dots on the map.

Hover mouse over dot to see the name of the station.

Then click to see weather observations and forecasts.

To change the map : click on the green buttons with a black cross to zoom in, on the green button with a dash to zoom out, or on the green arrows for adjacent maps.


METAR-TAF: